createdAt,value
2019-05-07T00:01:13.933Z,0
2019-05-07T00:02:28.074Z,0
2019-05-07T00:03:42.139Z,0
2019-05-07T00:04:56.374Z,0
2019-05-07T00:06:10.891Z,0
2019-05-07T00:07:24.819Z,0
2019-05-07T00:08:39.036Z,0
2019-05-07T00:09:53.330Z,0
2019-05-07T00:11:07.878Z,0
2019-05-07T00:12:21.935Z,0
2019-05-07T00:13:35.986Z,0
2019-05-07T00:14:50.270Z,0
2019-05-07T00:16:04.506Z,0
2019-05-07T00:17:18.641Z,0
2019-05-07T00:19:47.079Z,0
2019-05-07T00:21:01.413Z,0
2019-05-07T00:22:15.661Z,0
2019-05-07T00:23:29.858Z,0
2019-05-07T00:24:44.043Z,0
2019-05-07T00:25:58.754Z,0
2019-05-07T00:27:12.601Z,0
2019-05-07T00:28:26.664Z,0
2019-05-07T00:29:41.138Z,0
2019-05-07T00:30:55.514Z,0
2019-05-07T00:32:09.349Z,0
2019-05-07T00:33:23.579Z,0
2019-05-07T00:34:37.984Z,0
2019-05-07T00:35:52.771Z,0
2019-05-07T00:37:06.423Z,0
2019-05-07T00:38:20.495Z,0
2019-05-07T00:39:34.760Z,0
2019-05-07T00:40:49.257Z,0
2019-05-07T00:42:03.197Z,0
2019-05-07T00:44:31.753Z,0
2019-05-07T00:45:45.874Z,0
2019-05-07T00:47:00.132Z,0
2019-05-07T00:48:14.494Z,0
2019-05-07T00:49:28.642Z,0
2019-05-07T00:50:42.820Z,0
2019-05-07T00:51:57.011Z,0
2019-05-07T00:53:11.589Z,0
2019-05-07T00:54:25.509Z,0
2019-05-07T00:56:54.051Z,0
2019-05-07T00:58:08.193Z,0
2019-05-07T00:59:22.553Z,0
2019-05-07T01:00:36.780Z,0
2019-05-07T01:01:51.096Z,0
2019-05-07T01:03:05.140Z,0
2019-05-07T01:04:19.668Z,0
2019-05-07T01:05:33.625Z,0
2019-05-07T01:06:47.854Z,0
2019-05-07T01:09:21.130Z,0
2019-05-07T01:10:30.727Z,0
2019-05-07T01:11:44.789Z,0
2019-05-07T01:12:59.144Z,0
2019-05-07T01:14:13.355Z,0
2019-05-07T01:16:41.743Z,0
2019-05-07T01:17:56.061Z,0
2019-05-07T01:19:10.265Z,0
2019-05-07T01:20:24.418Z,0
2019-05-07T01:21:38.817Z,0
2019-05-07T01:22:53.061Z,0
2019-05-07T01:24:07.789Z,0
2019-05-07T01:25:22.174Z,0
2019-05-07T01:26:39.215Z,0
2019-05-07T01:27:49.787Z,0
2019-05-07T01:29:04.029Z,0
2019-05-07T01:30:21.356Z,0
2019-05-07T01:31:32.601Z,0
2019-05-07T01:34:01.105Z,0
2019-05-07T01:35:15.276Z,0
2019-05-07T01:36:29.418Z,0
2019-05-07T01:37:43.804Z,0
2019-05-07T01:38:58.008Z,0
2019-05-07T01:40:12.203Z,0
2019-05-07T01:41:26.466Z,0
2019-05-07T01:42:40.773Z,0
2019-05-07T01:43:54.924Z,0
2019-05-07T01:46:23.308Z,0
2019-05-07T01:47:37.456Z,0
2019-05-07T01:48:52.234Z,0
2019-05-07T01:50:06.077Z,0
2019-05-07T01:51:20.139Z,0
2019-05-07T01:52:34.365Z,0
2019-05-07T01:53:48.715Z,0
2019-05-07T01:55:02.975Z,0
2019-05-07T01:56:18.528Z,0
2019-05-07T01:57:31.289Z,0
2019-05-07T01:58:45.530Z,0
2019-05-07T01:59:59.801Z,0
2019-05-07T02:01:13.966Z,0
2019-05-07T02:02:28.212Z,0
2019-05-07T02:03:42.441Z,0
2019-05-07T02:04:56.744Z,0
2019-05-07T02:06:11.068Z,0
2019-05-07T02:07:25.155Z,0
2019-05-07T02:08:39.408Z,0
2019-05-07T02:09:53.648Z,0
2019-05-07T02:11:08.003Z,0
2019-05-07T02:12:22.081Z,0
2019-05-07T02:13:36.405Z,0
2019-05-07T02:14:50.480Z,0
2019-05-07T02:16:04.763Z,0
2019-05-07T02:17:19.168Z,0
2019-05-07T02:18:33.900Z,0
2019-05-07T02:19:47.471Z,0
2019-05-07T02:21:01.644Z,0
2019-05-07T02:22:15.986Z,0
2019-05-07T02:23:30.137Z,0
2019-05-07T02:24:46.437Z,0
2019-05-07T02:26:00.807Z,0
2019-05-07T02:27:12.839Z,0
2019-05-07T02:28:27.187Z,0
2019-05-07T02:29:41.271Z,0
2019-05-07T02:30:55.570Z,0
2019-05-07T02:32:09.761Z,0
2019-05-07T02:33:23.972Z,0
2019-05-07T02:34:38.565Z,0
2019-05-07T02:35:52.622Z,0
2019-05-07T02:37:06.864Z,0
2019-05-07T02:38:20.888Z,0
2019-05-07T02:39:35.285Z,0
2019-05-07T02:40:49.769Z,0
2019-05-07T02:42:03.625Z,0
2019-05-07T02:43:17.811Z,0
2019-05-07T02:44:32.099Z,0
2019-05-07T02:45:46.293Z,0
2019-05-07T02:47:00.619Z,0
2019-05-07T02:48:14.849Z,0
2019-05-07T02:49:29.022Z,0
2019-05-07T02:50:43.266Z,0
2019-05-07T02:51:57.525Z,0
2019-05-07T02:53:11.740Z,0
2019-05-07T02:54:26.998Z,0
2019-05-07T02:56:54.537Z,0
2019-05-07T02:58:08.729Z,0
2019-05-07T03:00:37.328Z,0
2019-05-07T03:01:51.472Z,0
2019-05-07T03:03:06.267Z,0
2019-05-07T03:04:19.891Z,0
2019-05-07T03:05:34.247Z,0
2019-05-07T03:06:49.192Z,0
2019-05-07T03:08:02.743Z,0
2019-05-07T03:09:16.831Z,0
2019-05-07T03:10:31.039Z,4
2019-05-07T03:11:50.596Z,4
2019-05-07T03:12:59.557Z,0
2019-05-07T03:14:13.808Z,4
2019-05-07T03:15:27.955Z,4
2019-05-07T03:16:42.307Z,4
2019-05-07T03:17:56.487Z,8
2019-05-07T03:19:10.732Z,4
2019-05-07T03:20:24.939Z,8
2019-05-07T03:21:39.077Z,8
2019-05-07T03:22:53.302Z,12
2019-05-07T03:24:07.686Z,16
2019-05-07T03:25:23.575Z,16
2019-05-07T03:27:50.237Z,24
2019-05-07T03:29:04.707Z,28
2019-05-07T03:30:18.694Z,36
2019-05-07T03:31:32.903Z,40
2019-05-07T03:32:47.326Z,48
2019-05-07T03:34:01.379Z,56
2019-05-07T03:35:15.609Z,68
2019-05-07T03:37:44.318Z,92
2019-05-07T03:38:58.249Z,108
2019-05-07T03:40:12.494Z,124
2019-05-07T03:41:26.698Z,144
2019-05-07T03:42:40.903Z,168
2019-05-07T03:43:55.203Z,192
2019-05-07T03:45:09.415Z,220
2019-05-07T03:46:23.950Z,240
2019-05-07T03:47:37.851Z,268
2019-05-07T03:48:52.021Z,292
2019-05-07T03:50:06.416Z,320
2019-05-07T03:51:20.587Z,356
2019-05-07T03:52:34.689Z,388
2019-05-07T03:53:49.178Z,424
2019-05-07T03:55:03.386Z,464
2019-05-07T03:56:20.450Z,504
2019-05-07T03:57:31.590Z,544
2019-05-07T03:58:45.919Z,592
2019-05-07T04:00:00.078Z,644
2019-05-07T04:02:28.619Z,752
2019-05-07T04:03:42.752Z,816
2019-05-07T04:04:57.181Z,884
2019-05-07T04:06:11.310Z,956
2019-05-07T04:07:25.461Z,1028
2019-05-07T04:08:39.643Z,1096
2019-05-07T04:09:53.866Z,1164
2019-05-07T04:11:08.405Z,1228
2019-05-07T04:12:22.298Z,1292
2019-05-07T04:14:51.229Z,1408
2019-05-07T04:16:05.087Z,1460
2019-05-07T04:17:19.288Z,1528
2019-05-07T04:18:33.568Z,1620
2019-05-07T04:19:48.027Z,1720
2019-05-07T04:21:02.073Z,1796
2019-05-07T04:22:16.207Z,1864
2019-05-07T04:23:30.348Z,1948
2019-05-07T04:24:44.638Z,2048
2019-05-07T04:27:13.049Z,2264
2019-05-07T04:28:27.222Z,2352
2019-05-07T04:29:41.528Z,2444
2019-05-07T04:30:55.941Z,2556
2019-05-07T04:32:10.101Z,2684
2019-05-07T04:33:24.148Z,2792
2019-05-07T04:34:38.348Z,2892
2019-05-07T04:35:52.701Z,2960
2019-05-07T04:37:06.840Z,3004
2019-05-07T04:38:21.102Z,3068
2019-05-07T04:39:35.195Z,3160
2019-05-07T04:40:49.436Z,3264
2019-05-07T04:42:03.671Z,3372
2019-05-07T04:43:17.866Z,3452
2019-05-07T04:44:32.102Z,3448
2019-05-07T04:45:46.315Z,3456
2019-05-07T04:47:00.498Z,3488
2019-05-07T04:48:14.874Z,3436
2019-05-07T04:49:29.042Z,3380
2019-05-07T04:51:57.405Z,3460
2019-05-07T04:53:11.729Z,3504
2019-05-07T04:54:26.174Z,3508
2019-05-07T04:55:40.742Z,3540
2019-05-07T04:56:54.333Z,3584
2019-05-07T04:58:08.601Z,3652
2019-05-07T04:59:22.878Z,3724
2019-05-07T05:00:37.014Z,3780
2019-05-07T05:01:51.140Z,4012
2019-05-07T05:04:19.602Z,4492
2019-05-07T05:05:34.076Z,4676
2019-05-07T05:06:52.480Z,4772
2019-05-07T05:08:02.354Z,4828
2019-05-07T05:09:16.460Z,4820
2019-05-07T05:10:30.592Z,4500
2019-05-07T05:11:44.911Z,4820
2019-05-07T05:12:59.111Z,5180
2019-05-07T05:14:13.259Z,5328
2019-05-07T05:15:27.408Z,5464
2019-05-07T05:16:41.792Z,5596
2019-05-07T05:17:55.872Z,5804
2019-05-07T05:19:10.129Z,5872
2019-05-07T05:20:24.296Z,5716
2019-05-07T05:21:38.491Z,5832
2019-05-07T05:22:52.794Z,6112
2019-05-07T05:24:06.877Z,6340
2019-05-07T05:25:21.234Z,6620
2019-05-07T05:26:37.470Z,6748
2019-05-07T05:27:49.615Z,6840
2019-05-07T05:29:03.744Z,6688
2019-05-07T05:30:18.117Z,6816
2019-05-07T05:31:32.172Z,6784
2019-05-07T05:32:46.793Z,6828
2019-05-07T05:34:00.593Z,6960
2019-05-07T05:35:14.767Z,7056
2019-05-07T05:36:28.993Z,7544
2019-05-07T05:37:43.278Z,7908
2019-05-07T05:38:57.558Z,8320
2019-05-07T05:41:26.007Z,8992
2019-05-07T05:42:44.910Z,9420
2019-05-07T05:43:54.340Z,9568
2019-05-07T05:45:08.674Z,9604
2019-05-07T05:46:22.773Z,9648
2019-05-07T05:47:36.894Z,9624
2019-05-07T05:48:51.207Z,9572
2019-05-07T05:50:05.335Z,9656
2019-05-07T05:51:19.636Z,9704
2019-05-07T05:52:33.714Z,9604
2019-05-07T05:53:47.932Z,9584
2019-05-07T05:55:02.143Z,9868
2019-05-07T05:56:16.926Z,10204
2019-05-07T05:57:30.561Z,10444
2019-05-07T05:58:44.740Z,10756
2019-05-07T05:59:59.061Z,11064
2019-05-07T06:01:13.708Z,10968
2019-05-07T06:02:27.371Z,11604
2019-05-07T06:03:41.566Z,12212
2019-05-07T06:04:55.773Z,12032
2019-05-07T06:06:09.950Z,12656
2019-05-07T06:07:24.253Z,13876
2019-05-07T06:08:38.349Z,14328
2019-05-07T06:09:52.598Z,14452
2019-05-07T06:11:06.800Z,13976
2019-05-07T06:12:20.903Z,13996
2019-05-07T06:13:35.128Z,14796
2019-05-07T06:14:49.296Z,15824
2019-05-07T06:16:03.827Z,15968
2019-05-07T06:17:18.478Z,15824
2019-05-07T06:18:31.845Z,15728
2019-05-07T06:19:46.055Z,15496
2019-05-07T06:21:00.198Z,15384
2019-05-07T06:22:14.398Z,15288
2019-05-07T06:23:28.559Z,14688
2019-05-07T06:24:42.782Z,14068
2019-05-07T06:27:11.113Z,14392
2019-05-07T06:28:25.296Z,14788
2019-05-07T06:29:39.612Z,15584
2019-05-07T06:30:53.766Z,15620
2019-05-07T06:32:07.931Z,15916
2019-05-07T06:33:22.138Z,16128
2019-05-07T06:35:50.451Z,17056
2019-05-07T06:37:04.670Z,16516
2019-05-07T06:38:18.950Z,15856
2019-05-07T06:39:33.206Z,15884
2019-05-07T06:40:47.134Z,15988
2019-05-07T06:42:01.441Z,16076
2019-05-07T06:44:29.667Z,16992
2019-05-07T06:45:43.844Z,17600
2019-05-07T06:46:58.103Z,17824
2019-05-07T06:48:12.210Z,17664
2019-05-07T06:49:26.492Z,17568
2019-05-07T06:50:40.572Z,17568
2019-05-07T06:51:55.969Z,17728
2019-05-07T06:53:08.980Z,18304
2019-05-07T06:54:23.192Z,18816
2019-05-07T06:55:37.326Z,18912
2019-05-07T06:56:51.575Z,18848
2019-05-07T06:58:05.658Z,18688
2019-05-07T06:59:19.870Z,18592
2019-05-07T07:00:34.037Z,18816
2019-05-07T07:01:48.124Z,19264
2019-05-07T07:03:02.333Z,19648
2019-05-07T07:04:16.656Z,19968
2019-05-07T07:05:30.639Z,20416
2019-05-07T07:07:59.252Z,21568
2019-05-07T07:09:13.134Z,22080
2019-05-07T07:10:27.375Z,22528
2019-05-07T07:11:41.506Z,22368
2019-05-07T07:12:56.229Z,22144
2019-05-07T07:14:09.921Z,22176
2019-05-07T07:15:24.009Z,22560
2019-05-07T07:16:38.230Z,23392
2019-05-07T07:17:52.442Z,24352
2019-05-07T07:19:06.781Z,24544
2019-05-07T07:20:20.852Z,24064
2019-05-07T07:21:34.856Z,23328
2019-05-07T07:22:49.018Z,23264
2019-05-07T07:24:03.348Z,23808
2019-05-07T07:25:17.554Z,24416
2019-05-07T07:27:45.918Z,26144
2019-05-07T07:28:59.862Z,26496
2019-05-07T07:30:14.055Z,27712
2019-05-07T07:32:42.576Z,28160
2019-05-07T07:33:56.525Z,27968
2019-05-07T07:35:10.617Z,27776
2019-05-07T07:36:24.907Z,27648
2019-05-07T07:37:38.899Z,27648
2019-05-07T07:38:53.113Z,27872
2019-05-07T07:40:07.448Z,28096
2019-05-07T07:41:21.523Z,28000
2019-05-07T07:42:40.682Z,28032
2019-05-07T07:45:03.941Z,30144
2019-05-07T07:46:22.931Z,31328
2019-05-07T07:47:32.818Z,32032
2019-05-07T07:48:46.427Z,32288
2019-05-07T07:50:00.420Z,31648
2019-05-07T07:51:14.528Z,30208
2019-05-07T07:52:28.746Z,28832
2019-05-07T07:53:43.423Z,28608
2019-05-07T07:54:57.088Z,28192
2019-05-07T07:57:25.399Z,29216
2019-05-07T07:58:39.392Z,30112
2019-05-07T07:59:53.938Z,30720
2019-05-07T08:01:07.903Z,30720
2019-05-07T08:02:21.884Z,30784
2019-05-07T08:03:35.965Z,30880
2019-05-07T08:04:50.148Z,30752
2019-05-07T08:06:07.080Z,31296
2019-05-07T08:07:18.868Z,32416
2019-05-07T08:08:32.743Z,33408
2019-05-07T08:09:47.139Z,34240
2019-05-07T08:11:01.727Z,35552
2019-05-07T08:12:15.080Z,35200
2019-05-07T08:13:29.134Z,34368
2019-05-07T08:14:43.390Z,34176
2019-05-07T08:15:57.469Z,34848
2019-05-07T08:17:11.726Z,36128
2019-05-07T08:18:25.880Z,35744
2019-05-07T08:19:39.929Z,36672
2019-05-07T08:20:53.986Z,37632
2019-05-07T08:22:08.218Z,42208
2019-05-07T08:23:22.348Z,45984
2019-05-07T08:24:36.481Z,43136
2019-05-07T08:25:53.236Z,42080
2019-05-07T08:27:04.819Z,44896
2019-05-07T08:28:18.760Z,42112
2019-05-07T08:29:33.025Z,37056
2019-05-07T08:30:47.076Z,41472
2019-05-07T08:32:01.272Z,37664
2019-05-07T08:33:15.316Z,37600
2019-05-07T08:34:29.338Z,42912
2019-05-07T08:35:43.502Z,45248
2019-05-07T08:36:57.603Z,41440
2019-05-07T08:38:11.709Z,40480
2019-05-07T08:39:25.950Z,41600
2019-05-07T08:40:40.040Z,40832
2019-05-07T08:41:54.076Z,40576
2019-05-07T08:43:08.219Z,41536
2019-05-07T08:44:22.847Z,44416
2019-05-07T08:45:36.627Z,45056
2019-05-07T08:46:50.944Z,52320
2019-05-07T08:48:04.775Z,51104
2019-05-07T08:49:18.897Z,52768
2019-05-07T08:50:33.409Z,48320
2019-05-07T08:51:47.209Z,48928
2019-05-07T08:53:01.304Z,50496
2019-05-07T08:54:15.435Z,50944
2019-05-07T08:55:30.836Z,45984
2019-05-07T08:56:47.649Z,57568
2019-05-07T08:57:57.853Z,60960
2019-05-07T08:59:11.877Z,54656
2019-05-07T09:00:26.083Z,55584
2019-05-07T09:01:40.231Z,51840
2019-05-07T09:02:54.191Z,45856
2019-05-07T09:04:08.630Z,58528
2019-05-07T09:05:22.773Z,41600
2019-05-07T09:06:36.544Z,37792
2019-05-07T09:07:50.708Z,36352
2019-05-07T09:09:04.830Z,35648
2019-05-07T09:10:18.891Z,32576
2019-05-07T09:11:32.959Z,31360
2019-05-07T09:12:47.404Z,30112
2019-05-07T09:14:01.331Z,28768
2019-05-07T09:15:15.365Z,29376
2019-05-07T09:16:29.647Z,45792
2019-05-07T09:17:43.583Z,28640
2019-05-07T09:19:00.014Z,28576
2019-05-07T09:20:11.856Z,27648
2019-05-07T09:21:25.980Z,29088
2019-05-07T09:22:40.272Z,32160
2019-05-07T09:23:54.370Z,33312
2019-05-07T09:25:08.497Z,45632
2019-05-07T09:26:26.954Z,85408
2019-05-07T09:27:36.947Z,86944
2019-05-07T09:28:50.780Z,86976
2019-05-07T09:30:04.891Z,66656
2019-05-07T09:31:18.995Z,54912
2019-05-07T09:32:33.122Z,46816
2019-05-07T09:33:47.270Z,50912
2019-05-07T09:35:01.345Z,64224
2019-05-07T09:36:15.497Z,82272
2019-05-07T09:37:29.721Z,45696
2019-05-07T09:38:43.757Z,46912
2019-05-07T09:39:57.854Z,48352
2019-05-07T09:41:15.579Z,37312
2019-05-07T09:42:25.985Z,34240
2019-05-07T09:43:40.014Z,35584
2019-05-07T09:44:54.317Z,70240
2019-05-07T09:46:09.489Z,48288
2019-05-07T09:48:36.572Z,93984
2019-05-07T09:49:50.580Z,35072
2019-05-07T09:51:04.873Z,48576
2019-05-07T09:53:36.174Z,34432
2019-05-07T09:54:47.041Z,33056
2019-05-07T09:56:01.753Z,32288
2019-05-07T09:57:15.265Z,31776
2019-05-07T09:58:29.537Z,31616
2019-05-07T10:00:57.634Z,33696
2019-05-07T10:02:11.926Z,35008
2019-05-07T10:03:25.868Z,35808
2019-05-07T10:04:40.366Z,36192
2019-05-07T10:05:54.120Z,36480
2019-05-07T10:07:08.278Z,36000
2019-05-07T10:08:22.646Z,35424
2019-05-07T10:09:36.700Z,35616
2019-05-07T10:10:50.847Z,35648
2019-05-07T10:12:05.085Z,34944
2019-05-07T10:13:19.292Z,34112
2019-05-07T10:14:33.217Z,33760
2019-05-07T10:15:47.334Z,33824
2019-05-07T10:17:06.270Z,33984
2019-05-07T10:18:15.589Z,33792
2019-05-07T10:19:29.673Z,33280
2019-05-07T10:20:43.830Z,33344
2019-05-07T10:21:58.019Z,34080
2019-05-07T10:23:16.188Z,35264
2019-05-07T10:24:26.234Z,36160
2019-05-07T10:26:54.526Z,37824
2019-05-07T10:28:08.703Z,38752
2019-05-07T10:29:22.884Z,39424
2019-05-07T10:30:38.574Z,39840
2019-05-07T10:31:51.172Z,40416
2019-05-07T10:33:05.108Z,41408
2019-05-07T10:34:19.204Z,42592
2019-05-07T10:35:33.499Z,43328
2019-05-07T10:36:47.437Z,44928
2019-05-07T10:38:01.725Z,45664
2019-05-07T10:39:15.686Z,43552
2019-05-07T10:40:29.804Z,43552
2019-05-07T10:41:43.934Z,44096
2019-05-07T10:42:58.184Z,41888
2019-05-07T10:45:26.486Z,38688
2019-05-07T10:46:40.554Z,37824
2019-05-07T10:47:54.564Z,36640
2019-05-07T10:50:22.970Z,32448
2019-05-07T10:51:37.039Z,29984
2019-05-07T10:52:51.537Z,27136
2019-05-07T10:54:05.315Z,24704
2019-05-07T10:55:20.072Z,22784
2019-05-07T10:57:51.307Z,20576
2019-05-07T10:59:01.712Z,19456
2019-05-07T11:00:16.010Z,17888
2019-05-07T11:02:44.146Z,14924
2019-05-07T11:03:58.289Z,14136
2019-05-07T11:05:12.426Z,13720
2019-05-07T11:06:26.628Z,13336
2019-05-07T11:07:40.765Z,13200
2019-05-07T11:08:54.910Z,13512
2019-05-07T11:10:09.041Z,14208
2019-05-07T11:11:23.243Z,15428
2019-05-07T11:12:37.351Z,17216
2019-05-07T11:13:51.525Z,18912
2019-05-07T11:15:05.669Z,20448
2019-05-07T11:16:19.867Z,21664
2019-05-07T11:17:34.078Z,23104
2019-05-07T11:18:48.231Z,24352
2019-05-07T11:20:02.558Z,25408
2019-05-07T11:21:16.681Z,26272
2019-05-07T11:22:30.981Z,26784
2019-05-07T11:23:44.756Z,27040
2019-05-07T11:24:58.897Z,27264
2019-05-07T11:26:19.423Z,27680
2019-05-07T11:27:27.298Z,28736
2019-05-07T11:28:41.395Z,31008
2019-05-07T11:29:55.677Z,33600
2019-05-07T11:31:09.711Z,34368
2019-05-07T11:32:23.804Z,34048
2019-05-07T11:34:52.406Z,31104
2019-05-07T11:36:06.448Z,29536
2019-05-07T11:37:20.429Z,28288
2019-05-07T11:38:35.161Z,27680
2019-05-07T11:39:48.682Z,27456
2019-05-07T11:41:02.783Z,28032
2019-05-07T11:42:17.011Z,29600
2019-05-07T11:43:31.175Z,31840
2019-05-07T11:44:45.211Z,34016
2019-05-07T11:47:13.470Z,35104
2019-05-07T11:48:27.857Z,35392
2019-05-07T11:49:42.162Z,36352
2019-05-07T11:52:10.251Z,36800
2019-05-07T11:53:24.225Z,35872
2019-05-07T11:54:38.380Z,34240
2019-05-07T11:55:54.644Z,32224
2019-05-07T11:57:06.681Z,30240
2019-05-07T11:58:20.772Z,28704
2019-05-07T11:59:34.847Z,27744
2019-05-07T12:00:48.960Z,27232
2019-05-07T12:02:03.692Z,26848
2019-05-07T12:03:18.856Z,26368
2019-05-07T12:04:32.206Z,25728
2019-05-07T12:05:46.674Z,25088
2019-05-07T12:07:01.435Z,24736
2019-05-07T12:08:16.020Z,24704
2019-05-07T12:09:28.068Z,24928
2019-05-07T12:11:56.232Z,25472
2019-05-07T12:13:15.418Z,25312
2019-05-07T12:14:24.736Z,24768
2019-05-07T12:16:52.780Z,23616
2019-05-07T12:18:07.037Z,23104
2019-05-07T12:19:21.146Z,22720
2019-05-07T12:20:35.255Z,22560
2019-05-07T12:21:52.630Z,22880
2019-05-07T12:24:17.643Z,24928
2019-05-07T12:25:31.863Z,26144
2019-05-07T12:28:00.066Z,29024
2019-05-07T12:29:14.195Z,31040
2019-05-07T12:30:28.471Z,33920
2019-05-07T12:31:42.565Z,37888
2019-05-07T12:32:56.862Z,61792
2019-05-07T12:34:10.767Z,134624
2019-05-07T12:35:25.000Z,107904
2019-05-07T12:37:53.101Z,65056
2019-05-07T12:39:07.254Z,58592
2019-05-07T12:41:35.395Z,50144
2019-05-07T12:42:49.590Z,137056
2019-05-07T12:44:03.628Z,139648
2019-05-07T12:45:17.949Z,135296
2019-05-07T12:46:31.798Z,124000
2019-05-07T12:47:46.138Z,127968
2019-05-07T12:48:59.912Z,123360
2019-05-07T12:50:14.000Z,121984
2019-05-07T12:51:28.070Z,43072
2019-05-07T12:52:42.187Z,30560
2019-05-07T12:53:56.330Z,27328
2019-05-07T12:55:10.413Z,24832
2019-05-07T12:56:24.829Z,25056
2019-05-07T12:57:38.511Z,26848
2019-05-07T12:58:52.772Z,28896
2019-05-07T13:00:06.715Z,28480
2019-05-07T13:01:20.797Z,27360
2019-05-07T13:02:34.960Z,25696
2019-05-07T13:03:49.125Z,23008
2019-05-07T13:06:17.455Z,18528
2019-05-07T13:07:32.001Z,17120
2019-05-07T13:08:45.509Z,15472
2019-05-07T13:09:59.683Z,13984
2019-05-07T13:11:13.938Z,12600
2019-05-07T13:12:28.267Z,11320
2019-05-07T13:13:42.884Z,10000
2019-05-07T13:14:56.296Z,8900
2019-05-07T13:16:10.565Z,8048
2019-05-07T13:18:38.680Z,7008
2019-05-07T13:19:52.997Z,6816
2019-05-07T13:21:07.001Z,7056
2019-05-07T13:22:21.202Z,7740
2019-05-07T13:23:35.352Z,8844
2019-05-07T13:24:49.902Z,10556
2019-05-07T13:26:08.553Z,12872
2019-05-07T13:27:18.458Z,15512
2019-05-07T13:28:32.145Z,18624
2019-05-07T13:29:46.251Z,22784
2019-05-07T13:31:00.487Z,41344
2019-05-07T13:32:14.647Z,60064
2019-05-07T13:33:28.791Z,42592
2019-05-07T13:34:42.953Z,42656
2019-05-07T13:35:57.102Z,43072
2019-05-07T13:37:11.265Z,40928
2019-05-07T13:38:25.427Z,38624
2019-05-07T13:39:39.681Z,36992
2019-05-07T13:40:53.732Z,36352
2019-05-07T13:43:22.182Z,38784
2019-05-07T13:44:36.311Z,38784
2019-05-07T13:45:50.782Z,35392
2019-05-07T13:47:04.823Z,30944
2019-05-07T13:48:18.739Z,26752
2019-05-07T13:49:32.838Z,24160
2019-05-07T13:50:47.066Z,23744
2019-05-07T13:52:01.105Z,23552
2019-05-07T13:53:15.254Z,22528
2019-05-07T13:55:43.691Z,19328
2019-05-07T13:56:57.954Z,17600
2019-05-07T13:58:11.860Z,15508
2019-05-07T13:59:26.010Z,13644
2019-05-07T14:00:40.329Z,12216
2019-05-07T14:01:54.484Z,11368
2019-05-07T14:03:08.481Z,11168
2019-05-07T14:04:22.820Z,11444
2019-05-07T14:05:36.957Z,12308
2019-05-07T14:08:05.158Z,17376
2019-05-07T14:09:19.372Z,25120
2019-05-07T14:10:33.643Z,35584
2019-05-07T14:11:47.916Z,37344
2019-05-07T14:13:02.148Z,33376
2019-05-07T14:14:15.950Z,32736
2019-05-07T14:15:30.115Z,29952
2019-05-07T14:16:44.334Z,28352
2019-05-07T14:17:58.429Z,28096
2019-05-07T14:20:26.784Z,24352
2019-05-07T14:21:40.908Z,22016
2019-05-07T14:22:55.090Z,20192
2019-05-07T14:24:09.204Z,18560
2019-05-07T14:25:23.372Z,17056
2019-05-07T14:26:38.430Z,15876
2019-05-07T14:27:51.900Z,14940
2019-05-07T14:29:05.777Z,14028
2019-05-07T14:30:19.953Z,12992
2019-05-07T14:32:48.358Z,10320
2019-05-07T14:34:02.425Z,9136
2019-05-07T14:35:16.616Z,8140
2019-05-07T14:37:45.089Z,6420
2019-05-07T14:38:59.070Z,5852
2019-05-07T14:40:13.399Z,5788
2019-05-07T14:41:27.448Z,6140
2019-05-07T14:42:41.595Z,6600
2019-05-07T14:43:55.830Z,7028
2019-05-07T14:45:10.248Z,7496
2019-05-07T14:47:38.422Z,8264
2019-05-07T14:48:52.605Z,8296
2019-05-07T14:50:06.759Z,8108
2019-05-07T14:51:21.061Z,7908
2019-05-07T14:52:35.153Z,7868
2019-05-07T14:53:49.232Z,7980
2019-05-07T14:55:03.447Z,8136
2019-05-07T14:57:35.933Z,8404
2019-05-07T14:58:46.078Z,8648
2019-05-07T15:00:00.274Z,8988
2019-05-07T15:01:14.449Z,9404
2019-05-07T15:02:28.630Z,9788
2019-05-07T15:03:42.908Z,10200
2019-05-07T15:04:56.937Z,10788
2019-05-07T15:06:11.147Z,11496
2019-05-07T15:07:25.391Z,12212
2019-05-07T15:09:53.701Z,14040
2019-05-07T15:11:07.896Z,15392
2019-05-07T15:12:22.184Z,17056
2019-05-07T15:13:36.667Z,18528
2019-05-07T15:14:50.580Z,19904
2019-05-07T15:16:04.623Z,21536
2019-05-07T15:17:23.899Z,23264
2019-05-07T15:18:33.113Z,24544
2019-05-07T15:19:47.277Z,24928
2019-05-07T15:21:01.346Z,24864
2019-05-07T15:22:15.531Z,25088
2019-05-07T15:23:29.699Z,26208
2019-05-07T15:24:44.027Z,27712
2019-05-07T15:26:00.898Z,28736
2019-05-07T15:27:16.237Z,29184
2019-05-07T15:28:26.637Z,28896
2019-05-07T15:29:40.713Z,27552
2019-05-07T15:30:54.749Z,24768
2019-05-07T15:32:08.939Z,21664
2019-05-07T15:34:37.291Z,20160
2019-05-07T15:35:51.761Z,21248
2019-05-07T15:37:05.838Z,22304
2019-05-07T15:38:19.756Z,22496
2019-05-07T15:39:34.031Z,21824
2019-05-07T15:40:48.137Z,21120
2019-05-07T15:42:02.237Z,20576
2019-05-07T15:43:16.369Z,20192
2019-05-07T15:44:30.700Z,19840
2019-05-07T15:46:58.928Z,19392
2019-05-07T15:48:13.553Z,19136
2019-05-07T15:49:27.306Z,18848
2019-05-07T15:51:55.544Z,18176
2019-05-07T15:53:09.934Z,17824
2019-05-07T15:54:24.028Z,17664
2019-05-07T15:55:38.189Z,17824
2019-05-07T15:56:54.745Z,18176
2019-05-07T15:59:20.527Z,18784
2019-05-07T16:00:34.702Z,18752
2019-05-07T16:01:49.025Z,18656
2019-05-07T16:03:03.061Z,18688
2019-05-07T16:04:17.326Z,18752
2019-05-07T16:05:31.337Z,18624
2019-05-07T16:06:45.535Z,18368
2019-05-07T16:07:59.797Z,18240
2019-05-07T16:09:13.840Z,18176
2019-05-07T16:11:42.327Z,18464
2019-05-07T16:12:56.421Z,18432
2019-05-07T16:14:10.471Z,19072
2019-05-07T16:15:24.854Z,20256
2019-05-07T16:16:38.861Z,22048
2019-05-07T16:17:53.060Z,23456
2019-05-07T16:19:07.134Z,23648
2019-05-07T16:20:21.285Z,24096
2019-05-07T16:21:35.497Z,26464
2019-05-07T16:24:03.763Z,27552
2019-05-07T16:25:17.930Z,24384
2019-05-07T16:26:32.252Z,24384
2019-05-07T16:27:46.318Z,25024
2019-05-07T16:29:00.394Z,26400
2019-05-07T16:30:14.503Z,26976
2019-05-07T16:31:28.641Z,27296
2019-05-07T16:32:42.798Z,27168
2019-05-07T16:33:57.102Z,25760
2019-05-07T16:36:25.634Z,23328
2019-05-07T16:37:39.390Z,22400
2019-05-07T16:38:53.541Z,21120
2019-05-07T16:40:07.793Z,20768
2019-05-07T16:41:22.062Z,20480
2019-05-07T16:42:36.085Z,19968
2019-05-07T16:43:50.181Z,20032
2019-05-07T16:45:04.309Z,19712
2019-05-07T16:46:18.509Z,18912
2019-05-07T16:48:46.964Z,18208
2019-05-07T16:50:00.986Z,18400
2019-05-07T16:51:15.207Z,18592
2019-05-07T16:52:29.452Z,16928
2019-05-07T16:53:43.695Z,16224
2019-05-07T16:54:57.574Z,15976
2019-05-07T16:56:12.018Z,16360
2019-05-07T16:57:26.043Z,19744
2019-05-07T16:58:40.646Z,22688
2019-05-07T17:01:08.392Z,22400
2019-05-07T17:02:22.652Z,21664
2019-05-07T17:03:36.736Z,19968
2019-05-07T17:04:51.080Z,20480
2019-05-07T17:06:05.090Z,20928
2019-05-07T17:08:33.380Z,21984
2019-05-07T17:09:47.539Z,20704
2019-05-07T17:11:01.839Z,20192
2019-05-07T17:13:30.025Z,17760
2019-05-07T17:14:44.309Z,18720
2019-05-07T17:15:58.352Z,19232
2019-05-07T17:17:12.509Z,18272
2019-05-07T17:18:26.786Z,17280
2019-05-07T17:19:40.808Z,17408
2019-05-07T17:20:55.085Z,16896
2019-05-07T17:22:09.963Z,14656
2019-05-07T17:23:23.332Z,15392
2019-05-07T17:25:55.215Z,14784
2019-05-07T17:27:06.508Z,14240
2019-05-07T17:28:20.639Z,12332
2019-05-07T17:29:34.133Z,11244
2019-05-07T17:30:48.303Z,9980
2019-05-07T17:33:16.555Z,9904
2019-05-07T17:34:30.747Z,9596
2019-05-07T17:35:44.909Z,9252
2019-05-07T17:38:13.224Z,8808
2019-05-07T17:39:27.409Z,8664
2019-05-07T17:40:41.597Z,8584
2019-05-07T17:41:55.746Z,8636
2019-05-07T17:43:09.952Z,8616
2019-05-07T17:44:24.116Z,8356
2019-05-07T17:45:38.308Z,8240
2019-05-07T17:46:52.450Z,8016
2019-05-07T17:48:06.877Z,7844
2019-05-07T17:50:34.972Z,7568
2019-05-07T17:51:49.173Z,7428